Time;durP1;ratioP1;P1;durP2;ratioP2;P2;SDS_P1;SDS_P2;PMS_P1;PMS_P2;Temp;Humidity;BMP_temperature;BMP_pressure;BME280_temperature;BME280_humidity;BME280_pressure;Samples;Min_cycle;Max_cycle;Signal;HPM_P1;HPM_P2
2023/07/01 00:01:51;;;;;;;0.43;0.43;;;;;;;;;;5047024;28;20064;-82
2023/07/01 00:04:17;;;;;;;0.20;0.10;;;;;;;;;;5077272;28;20036;-81
2023/07/01 00:06:43;;;;;;;0.20;0.10;;;;;;;;;;5049032;28;20045;-80
2023/07/01 00:09:10;;;;;;;0.20;0.10;;;;;;;;;;5048256;28;20039;-82
2023/07/01 00:11:37;;;;;;;0.20;0.10;;;;;;;;;;5032596;28;20541;-81
2023/07/01 00:14:03;;;;;;;0.47;0.20;;;;;;;;;;5053484;28;20128;-83
2023/07/01 00:16:29;;;;;;;0.20;0.10;;;;;;;;;;5050667;28;20048;-80
2023/07/01 00:18:55;;;;;;;0.20;0.10;;;;;;;;;;5059587;28;20045;-81
2023/07/01 00:21:21;;;;;;;0.20;0.10;;;;;;;;;;5035297;28;20052;-81
2023/07/01 00:23:47;;;;;;;0.20;0.10;;;;;;;;;;5068730;28;20466;-82
2023/07/01 00:26:13;;;;;;;0.20;0.10;;;;;;;;;;5048853;28;20517;-83
2023/07/01 00:28:39;;;;;;;0.20;0.10;;;;;;;;;;5026352;28;20033;-83
2023/07/01 00:31:05;;;;;;;0.20;0.10;;;;;;;;;;5046575;28;20300;-83
2023/07/01 00:33:31;;;;;;;0.35;0.32;;;;;;;;;;5027648;28;20033;-84
2023/07/01 00:35:57;;;;;;;0.45;0.20;;;;;;;;;;5027731;28;20044;-82
2023/07/01 00:38:23;;;;;;;0.20;0.10;;;;;;;;;;5028660;28;20060;-83
2023/07/01 00:40:49;;;;;;;0.20;0.10;;;;;;;;;;5026183;28;20068;-83
2023/07/01 00:43:15;;;;;;;0.20;0.10;;;;;;;;;;5037671;28;20041;-85
2023/07/01 00:45:41;;;;;;;0.20;0.10;;;;;;;;;;5014812;28;20044;-84
2023/07/01 00:48:08;;;;;;;0.40;0.20;;;;;;;;;;5019022;28;20051;-81
2023/07/01 00:50:34;;;;;;;0.35;0.30;;;;;;;;;;5037584;28;20045;-81
2023/07/01 00:53:00;;;;;;;0.25;0.20;;;;;;;;;;5019300;28;20051;-81
2023/07/01 00:55:26;;;;;;;0.22;0.10;;;;;;;;;;5012128;28;20052;-83
2023/07/01 00:57:52;;;;;;;0.20;0.10;;;;;;;;;;5040743;28;20060;-84
2023/07/01 01:00:18;;;;;;;0.20;0.10;;;;;;;;;;5034247;28;20432;-83
2023/07/01 01:03:21;;;;;;;0.20;0.20;;;;;;;;;;5036908;28;20040;-84
2023/07/01 01:06:03;;;;;;;0.20;0.10;;;;;;;;;;4998081;28;20057;-84
2023/07/01 01:08:56;;;;;;;0.28;0.20;;;;;;;;;;5022252;28;20056;-81
2023/07/01 01:11:24;;;;;;;0.20;0.10;;;;;;;;;;5020813;28;20044;-85
2023/07/01 01:13:50;;;;;;;0.20;0.10;;;;;;;;;;5026921;28;20058;-83
2023/07/01 01:16:16;;;;;;;0.20;0.10;;;;;;;;;;5047708;28;20048;-82
2023/07/01 01:18:44;;;;;;;0.20;0.10;;;;;;;;;;5040124;28;20034;-82
2023/07/01 01:23:52;;;;;;;0.30;0.20;;;;;;;;;;5017025;28;20041;-84
2023/07/01 01:26:19;;;;;;;0.20;0.10;;;;;;;;;;4995144;28;20445;-84
2023/07/01 01:28:46;;;;;;;0.52;0.52;;;;;;;;;;4997060;28;20446;-84
2023/07/01 01:31:12;;;;;;;0.20;0.10;;;;;;;;;;5016561;28;20099;-85
2023/07/01 01:33:41;;;;;;;0.20;0.10;;;;;;;;;;4991746;28;20037;-83
2023/07/01 01:36:09;;;;;;;0.20;0.10;;;;;;;;;;4987249;28;20046;-82
2023/07/01 01:38:37;;;;;;;0.20;0.10;;;;;;;;;;4990695;28;20042;-81
2023/07/01 01:41:16;;;;;;;0.20;0.10;;;;;;;;;;4998045;28;20046;-83
2023/07/01 01:44:12;;;;;;;0.20;0.10;;;;;;;;;;4993718;28;20045;-83
2023/07/01 01:46:38;;;;;;;0.20;0.10;;;;;;;;;;4980777;28;20415;-83
2023/07/01 01:49:06;;;;;;;0.20;0.10;;;;;;;;;;4995867;28;20461;-84
2023/07/01 01:51:34;;;;;;;0.20;0.10;;;;;;;;;;4995804;28;20045;-85
2023/07/01 01:54:01;;;;;;;0.20;0.10;;;;;;;;;;4994095;28;20042;-87
2023/07/01 01:56:27;;;;;;;0.20;0.15;;;;;;;;;;4979519;28;20050;-85
2023/07/01 01:58:53;;;;;;;0.20;0.10;;;;;;;;;;4990752;28;20556;-84
2023/07/01 02:01:20;;;;;;;0.20;0.10;;;;;;;;;;4977327;28;20048;-83
2023/07/01 02:03:46;;;;;;;0.20;0.10;;;;;;;;;;4990344;28;20581;-85
2023/07/01 02:06:12;;;;;;;0.40;0.40;;;;;;;;;;4995898;28;20037;-85
2023/07/01 02:08:38;;;;;;;0.30;0.10;;;;;;;;;;4996686;28;20410;-89
2023/07/01 02:11:04;;;;;;;0.20;0.10;;;;;;;;;;4991241;28;20318;-82
2023/07/01 02:13:30;;;;;;;0.20;0.15;;;;;;;;;;5001798;28;20101;-83
2023/07/01 02:15:56;;;;;;;0.20;0.10;;;;;;;;;;4984676;28;20080;-86
2023/07/01 02:18:22;;;;;;;0.20;0.10;;;;;;;;;;5000269;28;20042;-84
2023/07/01 02:20:48;;;;;;;0.20;0.10;;;;;;;;;;4993128;28;20535;-82
2023/07/01 02:23:14;;;;;;;2.15;0.60;;;;;;;;;;4999191;28;20056;-87
2023/07/01 02:25:40;;;;;;;0.38;0.20;;;;;;;;;;4998315;28;20042;-85
2023/07/01 02:28:06;;;;;;;0.28;0.28;;;;;;;;;;4998247;28;20081;-84
2023/07/01 02:30:34;;;;;;;0.20;0.10;;;;;;;;;;4999682;28;20061;-83
2023/07/01 02:33:00;;;;;;;0.20;0.10;;;;;;;;;;4996865;28;20042;-87
2023/07/01 02:35:26;;;;;;;0.20;0.10;;;;;;;;;;4987581;28;20100;-85
2023/07/01 02:37:52;;;;;;;0.20;0.10;;;;;;;;;;4998547;28;20050;-86
2023/07/01 02:40:18;;;;;;;0.20;0.10;;;;;;;;;;4998024;28;20036;-84
2023/07/01 02:42:44;;;;;;;0.20;0.10;;;;;;;;;;4993837;28;20333;-85
2023/07/01 02:45:11;;;;;;;0.20;0.00;;;;;;;;;;4994610;28;20061;-84
2023/07/01 02:47:37;;;;;;;0.20;0.20;;;;;;;;;;4983217;28;20052;-86
2023/07/01 02:50:04;;;;;;;0.20;0.10;;;;;;;;;;4995434;28;20049;-85
2023/07/01 02:52:30;;;;;;;0.20;0.10;;;;;;;;;;4998311;28;20519;-85
2023/07/01 02:54:56;;;;;;;0.20;0.10;;;;;;;;;;4989330;28;20582;-84
2023/07/01 02:57:22;;;;;;;0.20;0.10;;;;;;;;;;4993328;28;20030;-80
2023/07/01 02:59:49;;;;;;;0.28;0.10;;;;;;;;;;4996431;28;20312;-81
2023/07/01 03:02:18;;;;;;;0.20;0.10;;;;;;;;;;4998176;28;20046;-81
2023/07/01 03:04:44;;;;;;;0.40;0.20;;;;;;;;;;4998161;28;20408;-82
2023/07/01 03:07:10;;;;;;;0.20;0.10;;;;;;;;;;4996466;28;20137;-81
2023/07/01 03:09:36;;;;;;;0.20;0.00;;;;;;;;;;4990627;28;20116;-84
2023/07/01 03:12:02;;;;;;;0.68;0.68;;;;;;;;;;4994737;28;20069;-82
2023/07/01 03:14:28;;;;;;;0.20;0.10;;;;;;;;;;4983540;28;20042;-80
2023/07/01 03:16:54;;;;;;;0.20;0.10;;;;;;;;;;4995898;28;20141;-81
2023/07/01 03:19:23;;;;;;;1.05;0.75;;;;;;;;;;4996038;28;20320;-82
2023/07/01 03:21:49;;;;;;;0.30;0.30;;;;;;;;;;4993039;28;20037;-84
2023/07/01 03:24:15;;;;;;;0.20;0.10;;;;;;;;;;4990148;28;20050;-84
2023/07/01 03:26:42;;;;;;;0.20;0.10;;;;;;;;;;4993490;28;20057;-80
2023/07/01 03:29:08;;;;;;;0.20;0.10;;;;;;;;;;4992777;28;20099;-82
2023/07/01 03:31:34;;;;;;;0.73;0.52;;;;;;;;;;4986951;28;20417;-81
2023/07/01 03:34:00;;;;;;;0.30;0.10;;;;;;;;;;4989200;28;20058;-81
2023/07/01 03:36:26;;;;;;;1.38;0.63;;;;;;;;;;4994326;28;20045;-81
2023/07/01 03:38:53;;;;;;;0.20;0.10;;;;;;;;;;4981468;28;20049;-82
2023/07/01 03:41:21;;;;;;;0.20;0.10;;;;;;;;;;4980452;28;20050;-85
2023/07/01 03:43:50;;;;;;;0.20;0.10;;;;;;;;;;4980993;28;20040;-88
2023/07/01 03:46:18;;;;;;;0.20;0.10;;;;;;;;;;5007869;28;20350;-82
2023/07/01 03:48:44;;;;;;;0.20;0.10;;;;;;;;;;4990045;28;20192;-86
2023/07/01 03:51:10;;;;;;;0.20;0.10;;;;;;;;;;4995746;28;20073;-83
2023/07/01 03:53:37;;;;;;;0.20;0.20;;;;;;;;;;4994666;28;20069;-83
2023/07/01 03:56:03;;;;;;;0.20;0.10;;;;;;;;;;4986477;28;20076;-85
2023/07/01 03:58:29;;;;;;;0.20;0.10;;;;;;;;;;4992874;28;20521;-84
2023/07/01 04:00:55;;;;;;;0.20;0.10;;;;;;;;;;4997158;28;20529;-87
2023/07/01 04:03:23;;;;;;;0.20;0.10;;;;;;;;;;4995097;28;20458;-83
2023/07/01 04:05:50;;;;;;;0.20;0.10;;;;;;;;;;4990797;28;20519;-84
2023/07/01 04:08:17;;;;;;;0.90;0.65;;;;;;;;;;4996549;28;20041;-83
2023/07/01 04:10:43;;;;;;;0.20;0.20;;;;;;;;;;4991642;28;20078;-85
2023/07/01 04:13:10;;;;;;;0.20;0.20;;;;;;;;;;4997098;28;20049;-84
2023/07/01 04:15:36;;;;;;;0.30;0.20;;;;;;;;;;4992360;28;20510;-84
2023/07/01 04:18:02;;;;;;;0.20;0.10;;;;;;;;;;4994960;28;20056;-84
2023/07/01 04:20:28;;;;;;;0.25;0.25;;;;;;;;;;4995037;28;20038;-86
2023/07/01 04:22:54;;;;;;;0.20;0.10;;;;;;;;;;4994468;28;20057;-83
2023/07/01 04:25:20;;;;;;;0.40;0.20;;;;;;;;;;4995346;28;20436;-84
2023/07/01 04:27:46;;;;;;;0.20;0.20;;;;;;;;;;4993196;28;20034;-87
2023/07/01 04:30:13;;;;;;;0.20;0.10;;;;;;;;;;4988581;28;20507;-84
2023/07/01 04:32:39;;;;;;;0.28;0.20;;;;;;;;;;4993988;28;20104;-84
2023/07/01 04:35:05;;;;;;;0.20;0.10;;;;;;;;;;4996117;28;21012;-82
2023/07/01 04:37:35;;;;;;;0.40;0.20;;;;;;;;;;4998064;28;20454;-86
2023/07/01 04:40:02;;;;;;;0.20;0.10;;;;;;;;;;4996379;28;20038;-86
2023/07/01 04:42:28;;;;;;;0.20;0.10;;;;;;;;;;4995955;28;20573;-84
2023/07/01 04:44:54;;;;;;;0.20;0.00;;;;;;;;;;4991197;28;20041;-86
2023/07/01 04:47:21;;;;;;;0.20;0.10;;;;;;;;;;4997515;28;20077;-82
2023/07/01 04:49:47;;;;;;;0.20;0.10;;;;;;;;;;4994568;28;20077;-82
2023/07/01 04:52:15;;;;;;;0.20;0.10;;;;;;;;;;4974912;28;20042;-85
2023/07/01 04:54:43;;;;;;;0.20;0.10;;;;;;;;;;4994739;28;21240;-84
2023/07/01 04:57:09;;;;;;;0.20;0.10;;;;;;;;;;4995006;28;20104;-83
2023/07/01 04:59:35;;;;;;;0.30;0.20;;;;;;;;;;4994106;28;20046;-87
2023/07/01 05:02:01;;;;;;;0.20;0.15;;;;;;;;;;4987078;28;20045;-85
2023/07/01 05:04:27;;;;;;;0.57;0.22;;;;;;;;;;4990740;28;20038;-85
2023/07/01 05:06:53;;;;;;;0.22;0.13;;;;;;;;;;4989562;28;20057;-85
2023/07/01 05:09:19;;;;;;;0.32;0.32;;;;;;;;;;4994018;28;20041;-87
2023/07/01 05:11:45;;;;;;;0.20;0.10;;;;;;;;;;4990227;28;20202;-83
2023/07/01 05:14:11;;;;;;;0.20;0.10;;;;;;;;;;4991719;28;20038;-84
2023/07/01 05:16:38;;;;;;;0.20;0.10;;;;;;;;;;4991692;28;20041;-85
2023/07/01 05:19:04;;;;;;;0.20;0.10;;;;;;;;;;4982951;28;20108;-84
2023/07/01 05:21:30;;;;;;;0.20;0.20;;;;;;;;;;4989757;28;20049;-85
2023/07/01 05:23:56;;;;;;;0.20;0.10;;;;;;;;;;4996563;28;20239;-86
2023/07/01 05:26:23;;;;;;;0.20;0.10;;;;;;;;;;4973430;28;20388;-81
2023/07/01 05:28:49;;;;;;;0.20;0.10;;;;;;;;;;4984847;28;20042;-86
2023/07/01 05:31:15;;;;;;;0.20;0.10;;;;;;;;;;4998025;28;20056;-84
2023/07/01 05:33:44;;;;;;;0.20;0.10;;;;;;;;;;4996106;28;20388;-84
2023/07/01 05:36:10;;;;;;;0.20;0.10;;;;;;;;;;4991757;28;20141;-85
2023/07/01 05:38:36;;;;;;;0.20;0.10;;;;;;;;;;4991341;28;20045;-86
2023/07/01 05:41:02;;;;;;;0.25;0.25;;;;;;;;;;4991886;28;20392;-87
2023/07/01 05:43:28;;;;;;;0.20;0.10;;;;;;;;;;4990900;28;20038;-85
2023/07/01 05:45:54;;;;;;;0.20;0.10;;;;;;;;;;4995131;28;20493;-85
2023/07/01 05:48:20;;;;;;;0.20;0.10;;;;;;;;;;4994478;28;20049;-84
2023/07/01 05:50:46;;;;;;;0.20;0.10;;;;;;;;;;4994312;28;20061;-84
2023/07/01 05:53:13;;;;;;;0.20;0.10;;;;;;;;;;4980657;28;20046;-87
2023/07/01 05:55:39;;;;;;;0.38;0.20;;;;;;;;;;4990973;28;20121;-84
2023/07/01 05:58:05;;;;;;;0.20;0.10;;;;;;;;;;4990142;28;20121;-83
2023/07/01 06:00:31;;;;;;;0.73;0.22;;;;;;;;;;4983091;28;20049;-85
2023/07/01 06:02:57;;;;;;;0.90;0.22;;;;;;;;;;4986969;28;20042;-83
2023/07/01 06:05:23;;;;;;;0.20;0.10;;;;;;;;;;4980318;28;20129;-84
2023/07/01 06:07:49;;;;;;;0.20;0.17;;;;;;;;;;4993191;28;20073;-84
2023/07/01 06:10:15;;;;;;;0.73;0.73;;;;;;;;;;4991621;28;20112;-85
2023/07/01 06:12:41;;;;;;;0.20;0.10;;;;;;;;;;4995419;28;20223;-85
2023/07/01 06:15:08;;;;;;;0.20;0.20;;;;;;;;;;4981965;28;20038;-84
2023/07/01 06:17:34;;;;;;;0.20;0.10;;;;;;;;;;4997401;28;20034;-84
2023/07/01 06:20:00;;;;;;;0.20;0.10;;;;;;;;;;5002560;28;20037;-84
2023/07/01 06:22:26;;;;;;;0.20;0.10;;;;;;;;;;4996033;28;20104;-84
2023/07/01 06:24:52;;;;;;;0.20;0.10;;;;;;;;;;4993464;28;20048;-84
2023/07/01 06:27:18;;;;;;;0.20;0.10;;;;;;;;;;4990519;28;20040;-86
2023/07/01 06:29:44;;;;;;;0.30;0.10;;;;;;;;;;4987625;28;20061;-84
2023/07/01 06:32:10;;;;;;;0.20;0.10;;;;;;;;;;5001928;28;20042;-86
2023/07/01 06:34:36;;;;;;;0.20;0.20;;;;;;;;;;4994336;28;20048;-83
2023/07/01 06:37:02;;;;;;;0.20;0.10;;;;;;;;;;4990708;28;20052;-88
2023/07/01 06:39:29;;;;;;;0.20;0.10;;;;;;;;;;4996035;28;20092;-86
2023/07/01 06:41:55;;;;;;;0.20;0.10;;;;;;;;;;4990199;28;20049;-83
2023/07/01 06:44:21;;;;;;;0.20;0.10;;;;;;;;;;4987916;28;20458;-85
2023/07/01 06:46:47;;;;;;;0.20;0.10;;;;;;;;;;4986307;28;20052;-86
2023/07/01 06:49:13;;;;;;;0.47;0.20;;;;;;;;;;4995834;28;20076;-85
2023/07/01 06:51:41;;;;;;;0.20;0.10;;;;;;;;;;5007930;28;20509;-83
2023/07/01 06:54:08;;;;;;;0.20;0.10;;;;;;;;;;5000037;28;20052;-86
2023/07/01 06:56:36;;;;;;;0.20;0.10;;;;;;;;;;4998319;28;20053;-84
2023/07/01 06:59:05;;;;;;;0.25;0.13;;;;;;;;;;4989032;28;20600;-83
2023/07/01 07:01:31;;;;;;;0.20;0.10;;;;;;;;;;5001283;28;20056;-86
2023/07/01 07:03:57;;;;;;;0.20;0.10;;;;;;;;;;4996895;28;20049;-86
2023/07/01 07:06:23;;;;;;;0.28;0.25;;;;;;;;;;4994981;28;20081;-87
2023/07/01 07:08:50;;;;;;;0.20;0.20;;;;;;;;;;4996163;28;20062;-83
2023/07/01 07:11:16;;;;;;;0.20;0.10;;;;;;;;;;4993292;28;20044;-83
2023/07/01 07:13:42;;;;;;;0.20;0.10;;;;;;;;;;4993658;28;20030;-82
2023/07/01 07:16:08;;;;;;;0.20;0.13;;;;;;;;;;4999182;28;20042;-83
2023/07/01 07:18:34;;;;;;;0.20;0.10;;;;;;;;;;4984064;28;20049;-85
2023/07/01 07:21:00;;;;;;;0.20;0.10;;;;;;;;;;4992501;28;20045;-84
2023/07/01 07:23:26;;;;;;;2.45;1.17;;;;;;;;;;5075680;22;20032;-82
2023/07/01 07:25:52;;;;;;;0.57;0.20;;;;;;;;;;5056582;28;20131;-86
2023/07/01 07:28:18;;;;;;;0.20;0.20;;;;;;;;;;5055662;28;20052;-82
2023/07/01 07:30:44;;;;;;;0.20;0.10;;;;;;;;;;5053561;28;20524;-84
2023/07/01 07:33:10;;;;;;;0.20;0.10;;;;;;;;;;5058482;28;20067;-82
2023/07/01 07:35:36;;;;;;;0.20;0.10;;;;;;;;;;5056237;28;20037;-82
2023/07/01 07:38:02;;;;;;;0.20;0.10;;;;;;;;;;5042737;28;20056;-85
2023/07/01 07:40:28;;;;;;;0.20;0.10;;;;;;;;;;5045469;28;20047;-84
2023/07/01 07:42:57;;;;;;;0.45;0.45;;;;;;;;;;5057306;28;20086;-84
2023/07/01 07:45:23;;;;;;;0.20;0.10;;;;;;;;;;5053789;28;20055;-82
2023/07/01 07:47:49;;;;;;;0.20;0.10;;;;;;;;;;5055674;28;20501;-84
2023/07/01 07:50:16;;;;;;;0.20;0.10;;;;;;;;;;5035849;28;20047;-83
2023/07/01 07:52:42;;;;;;;0.28;0.20;;;;;;;;;;5042800;28;20048;-81
2023/07/01 07:55:08;;;;;;;0.20;0.10;;;;;;;;;;5040093;28;20497;-84
2023/07/01 07:57:34;;;;;;;0.20;0.10;;;;;;;;;;5036339;28;20063;-83
2023/07/01 08:00:03;;;;;;;0.45;0.20;;;;;;;;;;5036417;28;20032;-82
2023/07/01 08:02:29;;;;;;;0.20;0.10;;;;;;;;;;5043780;28;20036;-83
2023/07/01 08:04:55;;;;;;;0.20;0.10;;;;;;;;;;5059342;28;20549;-83
2023/07/01 08:07:21;;;;;;;0.32;0.20;;;;;;;;;;5057078;28;20067;-85
2023/07/01 08:09:47;;;;;;;0.20;0.10;;;;;;;;;;5038937;28;20104;-85
2023/07/01 08:12:13;;;;;;;0.60;0.45;;;;;;;;;;5040762;28;20462;-81
2023/07/01 08:14:39;;;;;;;0.20;0.10;;;;;;;;;;5038623;28;20611;-81
2023/07/01 08:17:05;;;;;;;0.25;0.25;;;;;;;;;;5049103;28;20414;-83
2023/07/01 08:19:33;;;;;;;0.20;0.10;;;;;;;;;;5045063;28;20503;-84
2023/07/01 08:21:59;;;;;;;0.20;0.10;;;;;;;;;;5038120;28;20063;-81
2023/07/01 08:24:26;;;;;;;0.38;0.10;;;;;;;;;;5050848;28;20055;-83
2023/07/01 08:26:52;;;;;;;0.20;0.10;;;;;;;;;;5055740;28;20040;-81
2023/07/01 08:29:19;;;;;;;0.52;0.17;;;;;;;;;;5047341;28;20048;-83
2023/07/01 08:31:45;;;;;;;0.20;0.10;;;;;;;;;;5059178;28;20045;-83
2023/07/01 08:34:12;;;;;;;0.20;0.10;;;;;;;;;;5056165;28;20047;-86
2023/07/01 08:36:38;;;;;;;0.20;0.10;;;;;;;;;;5044198;28;20089;-81
2023/07/01 08:39:04;;;;;;;0.20;0.10;;;;;;;;;;5056204;28;20041;-83
2023/07/01 08:41:31;;;;;;;0.22;0.17;;;;;;;;;;5027992;28;20036;-81
2023/07/01 08:43:58;;;;;;;0.20;0.13;;;;;;;;;;5035510;28;20511;-80
2023/07/01 08:46:24;;;;;;;0.20;0.10;;;;;;;;;;5051763;28;20456;-80
2023/07/01 08:48:52;;;;;;;0.20;0.10;;;;;;;;;;5060286;28;20048;-79
2023/07/01 08:51:18;;;;;;;0.25;0.25;;;;;;;;;;5042591;28;20040;-82
2023/07/01 08:53:45;;;;;;;0.20;0.15;;;;;;;;;;5040996;28;20036;-82
2023/07/01 08:56:13;;;;;;;0.20;0.10;;;;;;;;;;5057947;28;20045;-80
2023/07/01 08:58:39;;;;;;;0.20;0.20;;;;;;;;;;5058797;28;20378;-82
2023/07/01 09:01:05;;;;;;;0.20;0.10;;;;;;;;;;5058090;28;20512;-82
2023/07/01 09:03:35;;;;;;;1.55;1.45;;;;;;;;;;5078903;28;20044;-85
2023/07/01 09:06:01;;;;;;;4.60;0.90;;;;;;;;;;5061815;28;20075;-80
2023/07/01 09:08:27;;;;;;;0.20;0.10;;;;;;;;;;5062462;28;20335;-81
2023/07/01 09:10:53;;;;;;;0.20;0.10;;;;;;;;;;5043456;28;20047;-82
2023/07/01 09:13:19;;;;;;;0.20;0.10;;;;;;;;;;5057402;28;20037;-80
2023/07/01 09:15:49;;;;;;;0.20;0.10;;;;;;;;;;5059745;28;20040;-84
2023/07/01 09:18:21;;;;;;;0.30;0.20;;;;;;;;;;5053924;28;20061;-83
2023/07/01 09:20:49;;;;;;;0.20;0.10;;;;;;;;;;5042375;28;20037;-82
2023/07/01 09:23:34;;;;;;;0.20;0.10;;;;;;;;;;5041089;28;20040;-82
2023/07/01 09:26:14;;;;;;;0.20;0.10;;;;;;;;;;5061589;28;20036;-79
2023/07/01 09:28:41;;;;;;;0.47;0.20;;;;;;;;;;5062030;28;20129;-80
2023/07/01 09:31:09;;;;;;;0.20;0.20;;;;;;;;;;5052927;28;20036;-83
2023/07/01 09:33:35;;;;;;;0.55;0.40;;;;;;;;;;5042227;28;20482;-82
2023/07/01 09:36:02;;;;;;;0.20;0.10;;;;;;;;;;5061636;28;20041;-82
2023/07/01 09:38:28;;;;;;;5.93;0.35;;;;;;;;;;5059531;28;20024;-81
2023/07/01 09:40:54;;;;;;;0.20;0.10;;;;;;;;;;5034142;28;20562;-82
2023/07/01 09:43:20;;;;;;;0.20;0.00;;;;;;;;;;5033364;28;20521;-81
2023/07/01 09:45:56;;;;;;;0.20;0.10;;;;;;;;;;5052756;28;20577;-82
2023/07/01 09:48:23;;;;;;;0.30;0.10;;;;;;;;;;5056719;28;20836;-82
2023/07/01 09:50:50;;;;;;;0.20;0.10;;;;;;;;;;5057085;28;20404;-80
2023/07/01 09:53:19;;;;;;;0.20;0.15;;;;;;;;;;5042117;28;20037;-81
2023/07/01 09:55:46;;;;;;;0.20;0.20;;;;;;;;;;5052535;28;20501;-83
2023/07/01 09:58:12;;;;;;;0.20;0.10;;;;;;;;;;5042650;28;20044;-80
2023/07/01 10:00:39;;;;;;;0.20;0.10;;;;;;;;;;5055237;28;20052;-80
2023/07/01 10:03:07;;;;;;;0.22;0.13;;;;;;;;;;5054402;28;20044;-81
2023/07/01 10:05:33;;;;;;;0.20;0.10;;;;;;;;;;5039993;28;20166;-82
2023/07/01 10:07:59;;;;;;;0.32;0.30;;;;;;;;;;5059625;28;20037;-83
2023/07/01 10:10:25;;;;;;;0.20;0.10;;;;;;;;;;5057439;28;20048;-80
2023/07/01 10:12:52;;;;;;;0.20;0.10;;;;;;;;;;5037626;28;20305;-81
2023/07/01 10:15:23;;;;;;;0.20;0.10;;;;;;;;;;5041830;28;20041;-82
2023/07/01 10:17:50;;;;;;;0.28;0.10;;;;;;;;;;5033186;28;20101;-80
2023/07/01 10:20:28;;;;;;;0.20;0.20;;;;;;;;;;5054307;28;20961;-81
2023/07/01 10:22:58;;;;;;;0.28;0.28;;;;;;;;;;5037506;28;20051;-81
2023/07/01 10:25:34;;;;;;;0.20;0.10;;;;;;;;;;5044563;28;20409;-83
2023/07/01 10:28:00;;;;;;;0.20;0.10;;;;;;;;;;5064261;28;20089;-82
2023/07/01 10:30:27;;;;;;;0.20;0.00;;;;;;;;;;5053092;28;20055;-83
2023/07/01 10:32:53;;;;;;;0.20;0.10;;;;;;;;;;5059170;28;20041;-83
2023/07/01 10:35:19;;;;;;;0.65;0.65;;;;;;;;;;5062528;28;20037;-83
2023/07/01 10:38:05;;;;;;;0.20;0.10;;;;;;;;;;5059245;28;20089;-84
2023/07/01 10:40:31;;;;;;;0.20;0.10;;;;;;;;;;5064020;28;20036;-83
2023/07/01 10:43:16;;;;;;;0.20;0.10;;;;;;;;;;5058973;28;20354;-81
2023/07/01 10:45:42;;;;;;;0.20;0.10;;;;;;;;;;5045064;28;20052;-82
2023/07/01 10:48:08;;;;;;;0.20;0.10;;;;;;;;;;5062566;28;20664;-83
2023/07/01 10:50:54;;;;;;;0.47;0.47;;;;;;;;;;5057876;28;20033;-82
2023/07/01 10:53:20;;;;;;;0.20;0.10;;;;;;;;;;5043424;28;20108;-80
2023/07/01 10:55:47;;;;;;;0.30;0.20;;;;;;;;;;5071420;28;20045;-83
2023/07/01 10:58:23;;;;;;;0.20;0.20;;;;;;;;;;5041538;28;20106;-80
2023/07/01 11:00:59;;;;;;;0.20;0.10;;;;;;;;;;5058318;28;20036;-82
2023/07/01 11:03:38;;;;;;;0.20;0.10;;;;;;;;;;5060270;28;20919;-82
2023/07/01 11:06:05;;;;;;;0.20;0.10;;;;;;;;;;5060349;28;20048;-81
2023/07/01 11:08:32;;;;;;;0.20;0.10;;;;;;;;;;5054211;28;20093;-81
2023/07/01 11:10:58;;;;;;;0.20;0.10;;;;;;;;;;5039343;28;20119;-79
2023/07/01 11:13:24;;;;;;;0.20;0.10;;;;;;;;;;5044146;28;20028;-82
2023/07/01 11:16:03;;;;;;;0.22;0.22;;;;;;;;;;5057099;28;20194;-82
2023/07/01 11:18:46;;;;;;;0.45;0.45;;;;;;;;;;5060839;28;20437;-81
2023/07/01 11:21:19;;;;;;;0.20;0.10;;;;;;;;;;5056694;28;20486;-82
2023/07/01 11:23:52;;;;;;;0.20;0.10;;;;;;;;;;5060035;28;20051;-80
2023/07/01 11:26:19;;;;;;;0.20;0.10;;;;;;;;;;5045474;28;20425;-81
2023/07/01 11:28:45;;;;;;;0.20;0.10;;;;;;;;;;5055505;28;20044;-81
2023/07/01 11:31:18;;;;;;;0.20;0.10;;;;;;;;;;5057558;28;20105;-81
2023/07/01 11:33:52;;;;;;;0.20;0.15;;;;;;;;;;5072691;28;20044;-81
2023/07/01 11:36:18;;;;;;;0.75;0.75;;;;;;;;;;5054805;28;20040;-82
2023/07/01 11:38:45;;;;;;;0.32;0.30;;;;;;;;;;5043799;28;20037;-83
2023/07/01 11:41:15;;;;;;;0.20;0.15;;;;;;;;;;5043041;28;20037;-82
2023/07/01 11:43:41;;;;;;;0.20;0.10;;;;;;;;;;5064924;28;20036;-83
2023/07/01 11:46:08;;;;;;;0.30;0.30;;;;;;;;;;5064148;28;20059;-81
2023/07/01 11:48:34;;;;;;;0.20;0.10;;;;;;;;;;5055337;28;20037;-82
2023/07/01 11:51:00;;;;;;;0.20;0.17;;;;;;;;;;5061036;28;20170;-85
2023/07/01 11:53:27;;;;;;;0.20;0.10;;;;;;;;;;5059298;28;20037;-82
2023/07/01 11:55:56;;;;;;;0.20;0.10;;;;;;;;;;5044473;28;20049;-84
2023/07/01 11:58:29;;;;;;;0.30;0.30;;;;;;;;;;5061876;28;20041;-80
2023/07/01 12:00:55;;;;;;;0.20;0.10;;;;;;;;;;5060773;28;20036;-83
2023/07/01 12:03:21;;;;;;;0.20;0.10;;;;;;;;;;5063091;28;20127;-83
2023/07/01 12:05:47;;;;;;;0.20;0.10;;;;;;;;;;5055825;28;20048;-82
2023/07/01 12:08:14;;;;;;;0.20;0.10;;;;;;;;;;5062243;28;20489;-84
2023/07/01 12:10:41;;;;;;;0.20;0.10;;;;;;;;;;5059769;28;20044;-82
2023/07/01 12:13:07;;;;;;;0.20;0.15;;;;;;;;;;5034312;28;20435;-84
2023/07/01 12:15:33;;;;;;;0.20;0.10;;;;;;;;;;5054429;28;20461;-82
2023/07/01 12:18:18;;;;;;;0.20;0.10;;;;;;;;;;5064141;28;20040;-82
2023/07/01 12:20:44;;;;;;;0.20;0.10;;;;;;;;;;5062697;28;20099;-80
2023/07/01 12:23:10;;;;;;;0.20;0.20;;;;;;;;;;5041633;28;20563;-80
2023/07/01 12:25:36;;;;;;;0.20;0.10;;;;;;;;;;5053531;28;20044;-83
2023/07/01 12:28:04;;;;;;;0.20;0.10;;;;;;;;;;5059500;28;20127;-84
2023/07/01 12:30:33;;;;;;;0.20;0.10;;;;;;;;;;5042430;28;20507;-83
2023/07/01 12:32:59;;;;;;;0.20;0.10;;;;;;;;;;5054898;28;20630;-81
2023/07/01 12:35:25;;;;;;;0.20;0.10;;;;;;;;;;5054308;28;20756;-85
2023/07/01 12:37:51;;;;;;;0.20;0.10;;;;;;;;;;5042763;28;20036;-83
2023/07/01 12:40:17;;;;;;;0.20;0.10;;;;;;;;;;5043364;28;20028;-84
2023/07/01 12:42:45;;;;;;;0.20;0.10;;;;;;;;;;5056199;28;20049;-83
2023/07/01 12:45:11;;;;;;;0.47;0.35;;;;;;;;;;5042227;28;20029;-84
2023/07/01 12:47:40;;;;;;;0.20;0.10;;;;;;;;;;5044768;28;20090;-83
2023/07/01 12:50:08;;;;;;;0.20;0.20;;;;;;;;;;5072628;28;20032;-84
2023/07/01 12:52:34;;;;;;;0.20;0.10;;;;;;;;;;5039429;28;20757;-83
2023/07/01 12:55:01;;;;;;;0.20;0.10;;;;;;;;;;5031808;28;20068;-81
2023/07/01 12:57:27;;;;;;;0.40;0.35;;;;;;;;;;5036319;28;20517;-84
2023/07/01 12:59:54;;;;;;;0.20;0.10;;;;;;;;;;5056892;28;20405;-83
2023/07/01 13:02:23;;;;;;;0.20;0.10;;;;;;;;;;5038721;28;20632;-82
2023/07/01 13:05:03;;;;;;;0.20;0.10;;;;;;;;;;5034682;28;20041;-81
2023/07/01 13:07:29;;;;;;;0.20;0.10;;;;;;;;;;5056042;28;20047;-83
2023/07/01 13:09:58;;;;;;;0.20;0.00;;;;;;;;;;5057565;28;20048;-84
2023/07/01 13:12:25;;;;;;;0.20;0.10;;;;;;;;;;5054525;28;20040;-86
2023/07/01 13:14:55;;;;;;;0.20;0.10;;;;;;;;;;5057938;28;20125;-83
2023/07/01 13:17:31;;;;;;;0.20;0.10;;;;;;;;;;5054309;28;20092;-84
2023/07/01 13:19:58;;;;;;;0.22;0.20;;;;;;;;;;5046392;28;21813;-85
2023/07/01 13:22:29;;;;;;;0.20;0.10;;;;;;;;;;5075448;22;20045;-84
2023/07/01 13:25:08;;;;;;;0.20;0.10;;;;;;;;;;4980327;28;20516;-83
2023/07/01 13:27:34;;;;;;;0.20;0.13;;;;;;;;;;4986915;28;20564;-83
2023/07/01 13:30:06;;;;;;;0.20;0.10;;;;;;;;;;5002709;28;20048;-83
2023/07/01 13:32:32;;;;;;;0.20;0.10;;;;;;;;;;5004285;28;20437;-80
2023/07/01 13:35:00;;;;;;;0.30;0.22;;;;;;;;;;5019570;28;20123;-82
2023/07/01 13:37:29;;;;;;;0.25;0.13;;;;;;;;;;5003974;28;20037;-81
2023/07/01 13:39:58;;;;;;;0.20;0.10;;;;;;;;;;4992560;28;20057;-80
2023/07/01 13:42:25;;;;;;;0.20;0.10;;;;;;;;;;5005918;28;20048;-83
2023/07/01 13:44:52;;;;;;;0.20;0.20;;;;;;;;;;5009910;28;20056;-83
2023/07/01 13:47:27;;;;;;;0.20;0.10;;;;;;;;;;5009343;28;20140;-82
2023/07/01 13:49:53;;;;;;;1.45;0.52;;;;;;;;;;5011254;28;20452;-81
2023/07/01 13:52:20;;;;;;;0.30;0.20;;;;;;;;;;4989989;28;20409;-82
2023/07/01 13:54:46;;;;;;;0.20;0.10;;;;;;;;;;5008350;28;20050;-82
2023/07/01 13:57:21;;;;;;;0.57;0.57;;;;;;;;;;5013828;28;20073;-83
2023/07/01 13:59:47;;;;;;;0.20;0.10;;;;;;;;;;5005617;28;20041;-80
2023/07/01 14:02:14;;;;;;;0.20;0.10;;;;;;;;;;5011899;28;20347;-84
2023/07/01 14:04:40;;;;;;;0.30;0.20;;;;;;;;;;5014555;28;20112;-84
2023/07/01 14:07:06;;;;;;;0.57;0.30;;;;;;;;;;4984607;28;20037;-82
2023/07/01 14:09:34;;;;;;;0.20;0.10;;;;;;;;;;5006431;28;20124;-80
2023/07/01 14:12:00;;;;;;;0.20;0.10;;;;;;;;;;5010125;28;20049;-80
2023/07/01 14:14:27;;;;;;;0.30;0.30;;;;;;;;;;5010078;28;20033;-82
2023/07/01 14:16:54;;;;;;;0.20;0.10;;;;;;;;;;5004803;28;20666;-82
2023/07/01 14:19:20;;;;;;;0.20;0.10;;;;;;;;;;4996312;28;20573;-82
2023/07/01 14:21:48;;;;;;;0.20;0.10;;;;;;;;;;5007916;28;20398;-84
2023/07/01 14:24:23;;;;;;;0.20;0.10;;;;;;;;;;5031296;28;20087;-81
2023/07/01 14:26:50;;;;;;;0.20;0.10;;;;;;;;;;5008829;28;20053;-82
2023/07/01 14:29:17;;;;;;;0.20;0.10;;;;;;;;;;5001461;28;20095;-82
2023/07/01 14:31:46;;;;;;;0.20;0.10;;;;;;;;;;4992272;28;20105;-84
2023/07/01 14:34:12;;;;;;;0.20;0.10;;;;;;;;;;5013320;28;20481;-83
2023/07/01 14:36:42;;;;;;;0.20;0.10;;;;;;;;;;4994958;28;20249;-81
2023/07/01 14:39:09;;;;;;;0.20;0.10;;;;;;;;;;5010343;28;20041;-82
2023/07/01 14:41:36;;;;;;;0.20;0.10;;;;;;;;;;5010037;28;20043;-79
2023/07/01 14:44:03;;;;;;;0.20;0.10;;;;;;;;;;5004227;28;20037;-81
2023/07/01 14:46:33;;;;;;;0.20;0.00;;;;;;;;;;4996413;28;20037;-80
2023/07/01 14:49:00;;;;;;;0.20;0.10;;;;;;;;;;5015365;28;20460;-82